Time;durP1;ratioP1;P1;durP2;ratioP2;P2;SDS_P1;SDS_P2;PMS_P1;PMS_P2;Temp;Humidity;BMP_temperature;BMP_pressure;BME280_temperature;BME280_humidity;BME280_pressure;Samples;Min_cycle;Max_cycle;Signal;HPM_P1;HPM_P2
2024/04/13 00:01:23;;;;;;;5.65;2.00;;;20.30;89.60;;;;;;5524121;25;20089;-60
2024/04/13 00:03:50;;;;;;;5.82;2.17;;;20.30;89.60;;;;;;5523736;25;20001;-60
2024/04/13 00:06:16;;;;;;;6.25;2.35;;;20.30;89.60;;;;;;5522124;25;20341;-60
2024/04/13 00:08:42;;;;;;;6.45;2.20;;;20.30;89.60;;;;;;5524220;25;20019;-60
2024/04/13 00:11:10;;;;;;;5.80;2.08;;;20.30;89.60;;;;;;5528269;25;20070;-60
2024/04/13 00:13:36;;;;;;;6.18;2.40;;;20.30;89.60;;;;;;5513343;25;20020;-60
2024/04/13 00:16:02;;;;;;;6.30;2.00;;;20.30;89.50;;;;;;5522038;25;20011;-61
2024/04/13 00:18:33;;;;;;;5.78;2.30;;;20.30;89.50;;;;;;5523745;25;20511;-60
2024/04/13 00:20:59;;;;;;;7.07;2.40;;;20.30;89.50;;;;;;5513905;25;20002;-60
2024/04/13 00:23:25;;;;;;;5.88;2.20;;;20.30;89.50;;;;;;5519213;25;20005;-61
2024/04/13 00:25:56;;;;;;;5.05;2.08;;;20.30;89.50;;;;;;5529833;25;20333;-60
2024/04/13 00:28:22;;;;;;;5.78;2.17;;;20.30;89.50;;;;;;5523254;25;20000;-60
2024/04/13 00:30:47;;;;;;;6.63;2.25;;;20.30;89.50;;;;;;5532111;25;20511;-60
2024/04/13 00:33:13;;;;;;;5.78;2.40;;;20.30;89.40;;;;;;5530010;25;20013;-60
2024/04/13 00:35:39;;;;;;;5.30;2.20;;;20.30;89.50;;;;;;5529253;25;20000;-60
2024/04/13 00:38:05;;;;;;;6.43;2.50;;;20.20;89.40;;;;;;5533115;25;20000;-60
2024/04/13 00:40:31;;;;;;;6.05;2.20;;;20.30;89.40;;;;;;5516677;25;20013;-60
2024/04/13 00:43:10;;;;;;;5.60;2.28;;;20.30;89.40;;;;;;5531616;25;20002;-60
2024/04/13 00:45:45;;;;;;;5.88;2.13;;;20.30;89.40;;;;;;5529093;25;20009;-60
2024/04/13 00:48:30;;;;;;;6.05;2.33;;;20.20;89.30;;;;;;5528941;25;19996;-61
2024/04/13 00:50:59;;;;;;;6.35;2.30;;;20.20;89.30;;;;;;5528158;25;20073;-60
2024/04/13 00:53:28;;;;;;;5.57;2.33;;;20.30;89.50;;;;;;5522158;25;20005;-61
2024/04/13 00:56:00;;;;;;;6.18;2.22;;;20.20;89.50;;;;;;5528402;25;20003;-60
2024/04/13 00:58:30;;;;;;;6.07;2.08;;;20.20;89.50;;;;;;5523135;25;19997;-60
2024/04/13 01:00:58;;;;;;;5.90;2.20;;;20.20;89.50;;;;;;5535895;25;20006;-60
2024/04/13 01:03:24;;;;;;;5.80;2.28;;;20.20;89.60;;;;;;5521690;25;20028;-60
2024/04/13 01:05:51;;;;;;;6.10;2.53;;;20.20;89.50;;;;;;5531402;25;20009;-60
2024/04/13 01:08:20;;;;;;;5.75;2.30;;;20.20;89.60;;;;;;5525592;25;20007;-60
2024/04/13 01:10:47;;;;;;;6.47;2.30;;;20.20;89.60;;;;;;5525801;25;20001;-60
2024/04/13 01:13:12;;;;;;;5.05;2.08;;;20.20;89.60;;;;;;5518831;25;19993;-61
2024/04/13 01:15:39;;;;;;;5.78;2.20;;;20.20;89.60;;;;;;5518927;25;20192;-60
2024/04/13 01:18:05;;;;;;;6.20;2.03;;;20.20;89.70;;;;;;5508425;25;20775;-60
2024/04/13 01:20:33;;;;;;;6.72;2.33;;;20.20;89.70;;;;;;5528533;25;20402;-60
2024/04/13 01:22:59;;;;;;;6.63;2.05;;;20.20;89.70;;;;;;5531881;25;20558;-60
2024/04/13 01:25:25;;;;;;;6.88;2.33;;;20.20;89.70;;;;;;5533696;25;20064;-60
2024/04/13 01:27:53;;;;;;;5.78;2.10;;;20.20;89.60;;;;;;5535696;25;20013;-60
2024/04/13 01:30:22;;;;;;;5.78;2.28;;;20.20;89.60;;;;;;5543409;25;19997;-60
2024/04/13 01:32:50;;;;;;;5.60;2.10;;;20.20;89.70;;;;;;5528470;25;20050;-60
2024/04/13 01:35:18;;;;;;;6.80;2.40;;;20.20;89.60;;;;;;5535072;25;20061;-60
2024/04/13 01:37:43;;;;;;;5.22;2.10;;;20.20;89.70;;;;;;5529790;25;19998;-60
2024/04/13 01:40:10;;;;;;;7.13;2.25;;;20.20;89.60;;;;;;5526650;25;20005;-60
2024/04/13 01:42:37;;;;;;;6.07;2.30;;;20.20;89.60;;;;;;5530100;25;20063;-60
2024/04/13 01:45:03;;;;;;;5.65;2.35;;;20.20;89.60;;;;;;5531896;25;19995;-60
2024/04/13 01:47:29;;;;;;;7.13;2.30;;;20.20;89.60;;;;;;5529318;25;19993;-60
2024/04/13 01:49:54;;;;;;;6.00;2.42;;;20.20;89.60;;;;;;5529600;25;20004;-60
2024/04/13 01:52:20;;;;;;;6.22;2.15;;;20.20;89.50;;;;;;5529340;25;19993;-60
2024/04/13 01:54:50;;;;;;;6.68;2.20;;;20.20;89.50;;;;;;5513368;25;20019;-60
2024/04/13 01:57:16;;;;;;;;;;;20.20;89.50;;;;;;5531699;25;20495;-60
2024/04/13 01:59:42;;;;;;;5.35;2.00;;;20.20;89.40;;;;;;5524959;25;19934;-60
2024/04/13 02:02:11;;;;;;;8.48;2.33;;;20.20;89.40;;;;;;5517527;25;20064;-60
2024/04/13 02:04:37;;;;;;;5.93;2.33;;;20.20;89.40;;;;;;5527310;25;20001;-60
2024/04/13 02:07:04;;;;;;;6.53;2.03;;;20.20;89.40;;;;;;5519425;25;19994;-60
2024/04/13 02:09:31;;;;;;;7.25;2.30;;;20.20;89.40;;;;;;5508432;25;20027;-60
2024/04/13 02:11:59;;;;;;;5.38;2.00;;;20.20;89.40;;;;;;5505831;26;20024;-60
2024/04/13 02:14:25;;;;;;;5.80;2.30;;;20.10;89.30;;;;;;5527242;25;19992;-60
2024/04/13 02:16:51;;;;;;;5.40;2.10;;;20.20;89.40;;;;;;5511758;25;20478;-60
2024/04/13 02:19:17;;;;;;;6.35;2.20;;;20.20;89.30;;;;;;5520224;25;20015;-60
2024/04/13 02:21:42;;;;;;;5.80;2.10;;;20.20;89.30;;;;;;5518961;25;19997;-60
2024/04/13 02:24:08;;;;;;;5.75;2.20;;;20.20;89.30;;;;;;5513049;25;20077;-60
2024/04/13 02:26:34;;;;;;;6.32;2.42;;;20.10;89.80;;;;;;5525219;25;19998;-60
2024/04/13 02:29:00;;;;;;;6.50;2.40;;;20.10;89.20;;;;;;5509734;26;20037;-60
2024/04/13 02:31:25;;;;;;;5.55;2.20;;;20.10;89.20;;;;;;5519201;25;20002;-60
2024/04/13 02:33:51;;;;;;;6.45;2.20;;;20.10;89.20;;;;;;5527486;25;20444;-60
2024/04/13 02:36:17;;;;;;;5.90;2.28;;;20.10;89.20;;;;;;5534465;25;20500;-60
2024/04/13 02:38:42;;;;;;;6.38;2.40;;;20.10;89.20;;;;;;5531770;25;20002;-60
2024/04/13 02:41:10;;;;;;;5.78;2.20;;;20.10;89.20;;;;;;5508309;25;20002;-61
2024/04/13 02:43:36;;;;;;;5.50;2.33;;;20.10;89.20;;;;;;5513297;25;20558;-60
2024/04/13 02:46:07;;;;;;;5.57;2.28;;;20.10;89.20;;;;;;5526554;25;20058;-60
2024/04/13 02:48:33;;;;;;;6.50;2.42;;;20.10;89.20;;;;;;5526909;25;19998;-59
2024/04/13 02:50:59;;;;;;;5.75;2.20;;;20.10;89.20;;;;;;5512694;25;20364;-60
2024/04/13 02:53:24;;;;;;;7.03;2.45;;;20.10;89.20;;;;;;5511486;25;19998;-60
2024/04/13 02:55:50;;;;;;;6.25;2.60;;;20.10;89.30;;;;;;5512685;25;19994;-60
2024/04/13 02:58:16;;;;;;;6.05;2.15;;;20.10;89.30;;;;;;5510153;25;20006;-60
2024/04/13 03:00:53;;;;;;;6.03;2.00;;;20.10;89.40;;;;;;5527503;25;20005;-60
2024/04/13 03:03:20;;;;;;;5.00;2.00;;;20.10;89.30;;;;;;5521342;25;19997;-60
2024/04/13 03:05:46;;;;;;;5.60;2.25;;;20.10;89.40;;;;;;5521642;25;20001;-60
2024/04/13 03:08:11;;;;;;;5.35;2.13;;;20.10;89.40;;;;;;5524543;25;20500;-60
2024/04/13 03:10:38;;;;;;;5.80;2.22;;;20.00;89.40;;;;;;5512247;25;20010;-60
2024/04/13 03:13:05;;;;;;;6.60;2.30;;;20.00;89.40;;;;;;5512179;25;20008;-60
2024/04/13 03:15:31;;;;;;;7.18;2.38;;;20.00;89.40;;;;;;5520968;25;20009;-60
2024/04/13 03:17:57;;;;;;;6.25;2.30;;;20.00;89.50;;;;;;5529352;25;20008;-60
2024/04/13 03:20:23;;;;;;;5.65;2.38;;;20.10;89.50;;;;;;5513376;25;20001;-60
2024/04/13 03:22:51;;;;;;;5.68;2.25;;;20.00;89.50;;;;;;5499397;26;20012;-60
2024/04/13 03:25:17;;;;;;;4.55;2.00;;;20.20;89.60;;;;;;5513321;25;20016;-60
2024/04/13 03:27:43;;;;;;;5.60;2.13;;;20.10;89.60;;;;;;5506983;25;19998;-61
2024/04/13 03:30:08;;;;;;;6.05;2.40;;;20.00;89.60;;;;;;5520260;25;20008;-60
2024/04/13 03:32:34;;;;;;;5.20;2.03;;;20.10;89.60;;;;;;5521939;25;20000;-60
2024/04/13 03:35:00;;;;;;;5.47;2.25;;;20.00;89.50;;;;;;5532997;25;20005;-61
2024/04/13 03:37:32;;;;;;;5.13;2.10;;;20.00;89.50;;;;;;5503467;26;20009;-60
2024/04/13 03:40:02;;;;;;;6.25;2.53;;;20.10;89.60;;;;;;5505030;25;20013;-60
2024/04/13 03:42:28;;;;;;;;;;;20.00;89.50;;;;;;5505896;26;20437;-60
2024/04/13 03:44:53;;;;;;;4.90;2.08;;;20.00;89.50;;;;;;5512738;25;20016;-61
2024/04/13 03:47:19;;;;;;;6.32;2.22;;;20.00;89.40;;;;;;5508648;25;19997;-60
2024/04/13 03:49:47;;;;;;;5.63;2.20;;;20.00;89.50;;;;;;5493141;26;20009;-61
2024/04/13 03:52:13;;;;;;;6.32;2.38;;;20.00;89.50;;;;;;5512001;25;20006;-61
2024/04/13 03:54:40;;;;;;;5.78;2.22;;;20.00;89.40;;;;;;5520029;25;20008;-60
2024/04/13 03:57:05;;;;;;;6.35;2.33;;;20.00;89.40;;;;;;5503002;26;19998;-60
2024/04/13 03:59:31;;;;;;;7.18;2.40;;;20.00;89.40;;;;;;5512673;26;20493;-61
2024/04/13 04:02:00;;;;;;;5.78;2.00;;;20.00;89.40;;;;;;5532120;25;20447;-60
2024/04/13 04:04:26;;;;;;;4.95;1.92;;;20.00;89.40;;;;;;5501685;26;19998;-60
2024/04/13 04:06:51;;;;;;;5.47;2.15;;;20.00;89.40;;;;;;5522884;25;20065;-60
2024/04/13 04:09:19;;;;;;;6.50;2.40;;;20.00;89.40;;;;;;5520013;25;20029;-60
2024/04/13 04:11:45;;;;;;;5.80;2.28;;;20.00;89.40;;;;;;5508616;25;20449;-60
2024/04/13 04:14:11;;;;;;;5.10;2.25;;;20.00;89.40;;;;;;5505535;25;19997;-60
2024/04/13 04:16:39;;;;;;;6.47;2.40;;;20.00;89.40;;;;;;5504144;25;20013;-60
2024/04/13 04:19:04;;;;;;;5.88;2.30;;;20.00;89.40;;;;;;5503459;26;20002;-61
2024/04/13 04:21:30;;;;;;;5.55;2.22;;;20.00;89.50;;;;;;5514854;25;20424;-60
2024/04/13 04:23:55;;;;;;;5.07;2.08;;;20.00;90.00;;;;;;5511653;25;20011;-61
2024/04/13 04:26:21;;;;;;;6.28;2.00;;;19.90;89.60;;;;;;5502415;25;20613;-60
2024/04/13 04:28:46;;;;;;;6.40;2.25;;;19.90;89.70;;;;;;5500082;25;20008;-60
2024/04/13 04:31:12;;;;;;;5.97;2.25;;;19.90;89.80;;;;;;5509034;26;20006;-60
2024/04/13 04:33:38;;;;;;;6.10;2.40;;;19.90;89.90;;;;;;5506647;26;19998;-60
2024/04/13 04:36:05;;;;;;;5.75;2.40;;;19.90;90.00;;;;;;5506442;26;20457;-60
2024/04/13 04:38:30;;;;;;;6.68;2.72;;;19.90;90.00;;;;;;5492193;26;20061;-60
2024/04/13 04:40:56;;;;;;;6.68;2.38;;;19.90;90.00;;;;;;5500969;26;19993;-60
2024/04/13 04:43:21;;;;;;;5.22;2.20;;;19.90;90.00;;;;;;5499657;26;19994;-60
2024/04/13 04:45:49;;;;;;;6.55;2.28;;;19.90;90.00;;;;;;5504229;26;20005;-60
2024/04/13 04:48:15;;;;;;;5.60;2.33;;;19.90;90.10;;;;;;5498523;26;19994;-60
2024/04/13 04:50:40;;;;;;;6.80;2.35;;;19.90;90.10;;;;;;5503394;26;19994;-60
2024/04/13 04:53:06;;;;;;;6.10;2.20;;;19.90;90.10;;;;;;5495064;26;20046;-60
2024/04/13 04:55:32;;;;;;;6.60;2.10;;;19.90;90.10;;;;;;5500396;26;19994;-60
2024/04/13 04:58:00;;;;;;;5.28;2.10;;;19.90;90.10;;;;;;5501751;26;20006;-60
2024/04/13 05:00:25;;;;;;;5.47;2.08;;;19.90;90.10;;;;;;5508507;26;20060;-60
2024/04/13 05:02:51;;;;;;;6.28;2.33;;;19.90;90.10;;;;;;5500538;26;20010;-60
2024/04/13 05:05:17;;;;;;;5.55;2.20;;;19.90;90.10;;;;;;5504429;26;20002;-60
2024/04/13 05:07:42;;;;;;;6.00;2.40;;;19.90;90.10;;;;;;5499227;26;20441;-61
2024/04/13 05:10:08;;;;;;;5.30;2.05;;;19.90;90.10;;;;;;5505039;26;19997;-60
2024/04/13 05:12:33;;;;;;;5.47;2.13;;;19.90;90.10;;;;;;5500382;26;20006;-60
2024/04/13 05:14:59;;;;;;;6.55;2.33;;;19.90;90.10;;;;;;5502560;26;20336;-60
2024/04/13 05:17:25;;;;;;;5.15;2.20;;;19.90;90.20;;;;;;5505250;26;20009;-60
2024/04/13 05:19:50;;;;;;;8.00;2.72;;;19.90;90.20;;;;;;5500084;26;19994;-60
2024/04/13 05:22:16;;;;;;;6.25;2.38;;;19.90;90.20;;;;;;5496891;26;19998;-61
2024/04/13 05:24:41;;;;;;;7.55;2.20;;;19.90;90.20;;;;;;5505154;26;20009;-60
2024/04/13 05:27:07;;;;;;;6.03;2.20;;;19.90;90.20;;;;;;5497204;26;20008;-60
2024/04/13 05:29:34;;;;;;;6.25;2.22;;;19.90;90.30;;;;;;5510271;26;20089;-60
2024/04/13 05:32:00;;;;;;;7.63;2.80;;;19.90;90.30;;;;;;5504462;26;20006;-60
2024/04/13 05:34:28;;;;;;;6.43;2.47;;;19.90;90.30;;;;;;5505089;26;20010;-60
2024/04/13 05:36:54;;;;;;;6.10;2.22;;;20.00;90.30;;;;;;5503991;26;19998;-60
2024/04/13 05:39:22;;;;;;;5.93;2.42;;;19.90;90.30;;;;;;5502595;26;20341;-60
2024/04/13 05:41:48;;;;;;;5.50;2.20;;;20.00;90.30;;;;;;5499835;26;20013;-60
2024/04/13 05:44:14;;;;;;;7.07;2.75;;;19.90;90.20;;;;;;5501864;26;20001;-60
2024/04/13 05:46:39;;;;;;;6.50;2.38;;;20.00;90.30;;;;;;5497617;26;20013;-60
2024/04/13 05:49:05;;;;;;;7.00;2.63;;;20.00;90.30;;;;;;5497332;26;20017;-60
2024/04/13 05:51:31;;;;;;;5.43;2.08;;;20.00;90.20;;;;;;5501013;26;20001;-60
2024/04/13 05:53:56;;;;;;;6.18;2.28;;;20.00;90.20;;;;;;5499069;26;19997;-59
2024/04/13 05:56:22;;;;;;;6.72;2.50;;;20.00;90.20;;;;;;5501551;26;20051;-60
2024/04/13 05:58:47;;;;;;;5.93;1.95;;;20.00;90.20;;;;;;5504546;26;19997;-59
2024/04/13 06:01:13;;;;;;;5.20;1.90;;;20.00;90.20;;;;;;5500073;26;20001;-60
2024/04/13 06:03:38;;;;;;;6.65;2.67;;;20.00;90.20;;;;;;5495846;26;19994;-60
2024/04/13 06:06:04;;;;;;;6.00;2.13;;;20.00;90.20;;;;;;5501467;26;19998;-60
2024/04/13 06:08:30;;;;;;;6.15;2.35;;;20.10;90.20;;;;;;5500365;26;20010;-60
2024/04/13 06:10:56;;;;;;;7.10;2.15;;;20.10;90.20;;;;;;5489205;26;20433;-60
2024/04/13 06:13:22;;;;;;;9.77;3.97;;;20.10;90.90;;;;;;5505768;26;20506;-60
2024/04/13 06:15:47;;;;;;;8.05;3.58;;;20.10;91.40;;;;;;5493197;26;20305;-60
2024/04/13 06:18:13;;;;;;;6.43;2.60;;;20.10;92.30;;;;;;5490753;26;19993;-60
2024/04/13 06:20:39;;;;;;;9.18;2.72;;;20.10;92.30;;;;;;5488606;26;20411;-60
2024/04/13 06:23:04;;;;;;;5.55;2.15;;;20.10;92.70;;;;;;5493031;26;20464;-60
2024/04/13 06:25:30;;;;;;;6.47;2.40;;;20.10;92.30;;;;;;5488193;26;20002;-60
2024/04/13 06:27:55;;;;;;;5.40;1.92;;;20.10;92.00;;;;;;5488409;26;19998;-60
2024/04/13 06:30:22;;;;;;;6.47;2.65;;;20.10;91.70;;;;;;5507690;26;19998;-60
2024/04/13 06:32:47;;;;;;;5.50;2.20;;;20.10;91.50;;;;;;5494808;26;19999;-60
2024/04/13 06:35:15;;;;;;;6.40;2.55;;;20.20;91.50;;;;;;5510404;25;19993;-59
2024/04/13 06:37:41;;;;;;;6.47;2.03;;;20.20;91.50;;;;;;5508347;25;20009;-60
2024/04/13 06:40:11;;;;;;;6.22;2.28;;;20.20;91.40;;;;;;5511683;25;20441;-60
2024/04/13 06:42:37;;;;;;;5.80;2.28;;;20.20;91.30;;;;;;5491669;26;20006;-60
2024/04/13 06:45:03;;;;;;;5.82;2.40;;;20.20;91.30;;;;;;5506731;25;20081;-60
2024/04/13 06:47:28;;;;;;;5.70;2.10;;;20.20;91.20;;;;;;5499775;26;19997;-60
2024/04/13 06:49:54;;;;;;;6.45;2.40;;;20.20;91.10;;;;;;5502383;25;20003;-60
2024/04/13 06:52:19;;;;;;;6.63;2.05;;;20.20;91.10;;;;;;5494238;25;20081;-60
2024/04/13 06:54:46;;;;;;;4.85;2.00;;;20.30;91.20;;;;;;5518116;25;20480;-60
2024/04/13 06:57:12;;;;;;;5.20;2.10;;;20.30;91.10;;;;;;5499338;25;20002;-60
2024/04/13 06:59:37;;;;;;;5.28;2.00;;;20.30;91.10;;;;;;5496478;25;20535;-60
2024/04/13 07:02:03;;;;;;;6.97;2.30;;;20.40;91.10;;;;;;5502316;25;19998;-60
2024/04/13 07:04:29;;;;;;;5.93;2.22;;;20.40;91.00;;;;;;5487235;25;20102;-60
2024/04/13 07:06:54;;;;;;;8.90;2.50;;;20.40;91.00;;;;;;5504695;25;20013;-61
2024/04/13 07:09:22;;;;;;;6.22;2.10;;;20.50;91.10;;;;;;5498241;25;20002;-60
2024/04/13 07:11:48;;;;;;;5.13;2.10;;;20.40;91.20;;;;;;5490075;26;20498;-61
2024/04/13 07:14:13;;;;;;;6.25;2.00;;;20.50;91.10;;;;;;5495077;25;19994;-60
2024/04/13 07:16:39;;;;;;;6.18;2.40;;;20.50;91.10;;;;;;5526829;25;20349;-61
2024/04/13 07:19:05;;;;;;;7.13;2.30;;;20.50;91.10;;;;;;5523950;25;20333;-60
2024/04/13 07:21:30;;;;;;;6.15;2.08;;;20.50;91.00;;;;;;5517902;25;20001;-60
2024/04/13 07:23:56;;;;;;;6.78;2.70;;;20.60;90.90;;;;;;5526475;25;20002;-60
2024/04/13 07:26:21;;;;;;;5.65;2.15;;;20.60;90.90;;;;;;5500767;25;20009;-60
2024/04/13 07:28:47;;;;;;;5.97;2.33;;;20.60;90.80;;;;;;5513973;25;19994;-60
2024/04/13 07:31:13;;;;;;;5.80;2.03;;;20.60;90.80;;;;;;5502138;26;20523;-61
2024/04/13 07:33:39;;;;;;;6.88;2.40;;;20.60;90.70;;;;;;5501144;26;19998;-61
2024/04/13 07:36:05;;;;;;;6.97;2.25;;;20.60;90.70;;;;;;5493477;26;20005;-62
2024/04/13 07:38:30;;;;;;;6.32;2.47;;;20.60;90.80;;;;;;5497130;26;20002;-61
2024/04/13 07:40:56;;;;;;;5.55;1.98;;;20.70;90.70;;;;;;5493724;26;20008;-62
2024/04/13 07:43:22;;;;;;;6.97;2.42;;;20.70;90.70;;;;;;5491691;26;20009;-61
2024/04/13 07:45:49;;;;;;;7.55;2.55;;;20.70;90.70;;;;;;5495286;26;20012;-61
2024/04/13 07:48:15;;;;;;;7.80;2.50;;;20.70;90.80;;;;;;5486331;26;19998;-62
2024/04/13 07:50:42;;;;;;;11.32;2.50;;;20.70;90.80;;;;;;5500512;26;20002;-61
2024/04/13 07:53:07;;;;;;;6.97;2.33;;;20.70;91.30;;;;;;5496734;26;20001;-61
2024/04/13 07:55:35;;;;;;;6.90;2.63;;;20.70;91.20;;;;;;5491882;26;20037;-61
2024/04/13 07:58:01;;;;;;;8.95;2.60;;;20.70;91.10;;;;;;5488827;26;20002;-61
2024/04/13 08:00:27;;;;;;;6.72;2.28;;;20.70;91.10;;;;;;5502704;26;20344;-61
2024/04/13 08:02:52;;;;;;;6.68;2.53;;;20.80;91.10;;;;;;5495111;26;20002;-61
2024/04/13 08:05:21;;;;;;;7.15;2.63;;;20.80;91.10;;;;;;5494761;26;20070;-60
2024/04/13 08:07:50;;;;;;;7.18;2.30;;;20.80;91.10;;;;;;5494978;26;20013;-60
2024/04/13 08:10:19;;;;;;;15.75;5.13;;;20.80;91.70;;;;;;5500475;26;20336;-60
2024/04/13 08:12:47;;;;;;;7.22;3.33;;;20.80;92.60;;;;;;5483436;26;20030;-60
2024/04/13 08:15:13;;;;;;;8.57;2.83;;;20.80;92.90;;;;;;5493352;26;20004;-60
2024/04/13 08:17:38;;;;;;;8.35;2.60;;;20.80;93.00;;;;;;5501116;26;19998;-61
2024/04/13 08:20:08;;;;;;;8.48;2.35;;;20.80;93.00;;;;;;5494200;26;20059;-60
2024/04/13 08:22:34;;;;;;;6.40;2.53;;;20.80;92.80;;;;;;5486439;26;20017;-61
2024/04/13 08:25:00;;;;;;;7.65;2.30;;;20.80;92.70;;;;;;5496589;26;20757;-60
2024/04/13 08:27:26;;;;;;;7.78;3.35;;;20.80;92.50;;;;;;5498204;26;20009;-61
2024/04/13 08:29:52;;;;;;;8.40;2.75;;;20.80;92.50;;;;;;5501381;26;20628;-60
2024/04/13 08:32:18;;;;;;;7.03;2.42;;;20.90;92.30;;;;;;5498067;26;20062;-61
2024/04/13 08:34:46;;;;;;;7.07;2.45;;;20.90;92.20;;;;;;5506542;26;20472;-60
2024/04/13 08:37:12;;;;;;;5.38;2.42;;;20.90;92.10;;;;;;5504880;26;19993;-60
2024/04/13 08:39:40;;;;;;;7.80;2.47;;;20.90;92.20;;;;;;5502384;26;20031;-60
2024/04/13 08:42:11;;;;;;;7.80;2.40;;;20.90;92.30;;;;;;5497128;26;19998;-60
2024/04/13 08:44:40;;;;;;;8.77;2.65;;;20.90;92.40;;;;;;5502825;26;20010;-61
2024/04/13 08:47:06;;;;;;;13.85;2.65;;;21.00;92.50;;;;;;5502524;26;20070;-60
2024/04/13 08:49:36;;;;;;;9.30;2.88;;;21.00;92.50;;;;;;5503781;26;20008;-60
2024/04/13 08:52:08;;;;;;;6.70;2.30;;;21.00;92.40;;;;;;5497666;26;19994;-60
2024/04/13 08:54:33;;;;;;;9.00;2.35;;;21.00;92.30;;;;;;5502476;26;19994;-60
2024/04/13 08:57:01;;;;;;;7.13;2.28;;;21.00;92.20;;;;;;5499720;26;20019;-60
2024/04/13 08:59:30;;;;;;;8.07;2.47;;;21.00;92.10;;;;;;5506947;26;20002;-60
2024/04/13 09:01:56;;;;;;;7.13;2.50;;;21.00;92.10;;;;;;5496118;26;20081;-61
2024/04/13 09:04:22;;;;;;;6.22;2.40;;;21.00;91.90;;;;;;5492133;26;20006;-60
2024/04/13 09:06:51;;;;;;;6.50;2.40;;;21.00;91.90;;;;;;5503843;26;19993;-60
2024/04/13 09:09:18;;;;;;;6.73;2.50;;;21.00;91.90;;;;;;5497755;26;20049;-60
2024/04/13 09:11:44;;;;;;;6.47;2.42;;;21.00;91.90;;;;;;5503097;26;20008;-60
2024/04/13 09:14:11;;;;;;;7.05;2.45;;;21.00;91.80;;;;;;5498740;26;20843;-60
2024/04/13 09:16:42;;;;;;;5.28;2.00;;;21.10;91.80;;;;;;5501583;26;20355;-60
2024/04/13 09:19:10;;;;;;;5.22;2.10;;;21.10;91.80;;;;;;5500301;26;20012;-60
2024/04/13 09:21:36;;;;;;;5.80;2.22;;;21.10;91.80;;;;;;5498287;26;20004;-60
2024/04/13 09:24:02;;;;;;;6.88;2.25;;;21.10;91.80;;;;;;5497395;26;20002;-60
2024/04/13 09:26:28;;;;;;;6.30;2.40;;;21.10;91.70;;;;;;5502042;26;20131;-60
2024/04/13 09:28:54;;;;;;;5.40;2.00;;;21.10;91.70;;;;;;5504683;26;19997;-60
2024/04/13 09:31:20;;;;;;;5.45;2.00;;;21.10;91.70;;;;;;5497412;26;20012;-60
2024/04/13 09:33:50;;;;;;;5.78;2.05;;;21.10;91.70;;;;;;5505437;26;20338;-60
2024/04/13 09:36:22;;;;;;;;;;;21.10;91.70;;;;;;5508354;26;20008;-60
2024/04/13 09:38:48;;;;;;;8.25;2.30;;;21.10;91.60;;;;;;5499046;26;20643;-60
2024/04/13 09:41:14;;;;;;;6.72;2.25;;;21.10;91.70;;;;;;5504154;26;20001;-60
2024/04/13 09:43:45;;;;;;;5.82;2.08;;;21.10;91.70;;;;;;5500056;26;20008;-61
2024/04/13 09:46:10;;;;;;;7.55;2.13;;;21.10;91.70;;;;;;5504126;26;20025;-60
2024/04/13 09:48:36;;;;;;;6.90;2.10;;;21.10;91.70;;;;;;5500401;26;20012;-60
2024/04/13 09:51:01;;;;;;;6.30;2.00;;;21.10;91.60;;;;;;5498603;26;20009;-60
2024/04/13 09:53:28;;;;;;;6.35;2.00;;;21.20;91.70;;;;;;5501310;26;20001;-60
2024/04/13 09:55:53;;;;;;;5.05;2.10;;;21.20;91.70;;;;;;5499095;26;20448;-60
2024/04/13 09:58:19;;;;;;;5.60;2.17;;;21.20;91.60;;;;;;5502395;26;19994;-60
2024/04/13 10:00:46;;;;;;;5.57;2.22;;;21.20;91.60;;;;;;5505216;26;20002;-60
2024/04/13 10:03:16;;;;;;;8.10;2.45;;;21.20;91.60;;;;;;5502139;26;20013;-60
2024/04/13 10:05:45;;;;;;;7.43;2.35;;;21.20;91.60;;;;;;5497387;26;20002;-60
2024/04/13 10:08:12;;;;;;;7.00;2.30;;;21.20;91.60;;;;;;5502528;26;20016;-60
2024/04/13 10:10:46;;;;;;;6.82;2.20;;;21.20;91.50;;;;;;5496699;26;20029;-60
2024/04/13 10:13:17;;;;;;;5.60;2.15;;;21.20;91.50;;;;;;5496984;26;20456;-60
2024/04/13 10:15:43;;;;;;;6.88;2.28;;;21.20;91.50;;;;;;5496013;26;20040;-60
2024/04/13 10:18:10;;;;;;;5.22;2.20;;;21.20;91.50;;;;;;5496403;26;19998;-60
2024/04/13 10:20:36;;;;;;;5.78;2.00;;;21.30;91.50;;;;;;5501620;26;19996;-60
2024/04/13 10:23:13;;;;;;;6.63;2.08;;;21.30;91.40;;;;;;5498038;26;20011;-60
2024/04/13 10:25:38;;;;;;;6.82;2.13;;;21.30;91.40;;;;;;5502951;26;20017;-60
2024/04/13 10:28:09;;;;;;;6.05;2.10;;;21.30;91.40;;;;;;5498299;26;20336;-60
2024/04/13 10:30:56;;;;;;;5.82;2.08;;;21.30;91.40;;;;;;5512078;26;19994;-60
2024/04/13 10:33:23;;;;;;;5.95;2.20;;;21.30;91.40;;;;;;5502815;26;20044;-60
2024/04/13 10:35:57;;;;;;;6.18;1.90;;;21.30;91.40;;;;;;5502522;26;20344;-60
2024/04/13 10:38:24;;;;;;;5.57;1.92;;;21.30;91.30;;;;;;5500347;26;19994;-60
2024/04/13 10:40:50;;;;;;;6.03;2.03;;;21.30;91.30;;;;;;5499274;26;20002;-60
2024/04/13 10:43:20;;;;;;;5.90;2.13;;;21.30;91.30;;;;;;5502288;26;20069;-60
2024/04/13 10:45:58;;;;;;;6.03;2.20;;;21.30;91.30;;;;;;5497128;26;20008;-60
2024/04/13 10:48:26;;;;;;;6.13;2.08;;;21.30;91.30;;;;;;5499306;26;20644;-60
2024/04/13 10:50:55;;;;;;;6.00;2.13;;;21.30;91.30;;;;;;5504338;26;19993;-60
2024/04/13 10:53:23;;;;;;;6.70;2.43;;;21.30;91.30;;;;;;5498008;26;20043;-60
2024/04/13 10:55:50;;;;;;;6.13;2.10;;;21.40;91.30;;;;;;5506131;26;20460;-60
2024/04/13 10:58:16;;;;;;;7.65;2.15;;;21.40;91.20;;;;;;5499758;26;20380;-60
2024/04/13 11:00:49;;;;;;;5.15;1.85;;;21.40;91.20;;;;;;5507064;26;20002;-60
2024/04/13 11:03:16;;;;;;;6.53;2.00;;;21.40;91.20;;;;;;5499424;26;20429;-60
2024/04/13 11:05:44;;;;;;;5.63;2.03;;;21.40;91.10;;;;;;5505555;26;19997;-60
2024/04/13 11:08:10;;;;;;;5.50;1.77;;;21.40;91.10;;;;;;5506505;26;20012;-60
2024/04/13 11:10:36;;;;;;;5.63;2.05;;;21.50;91.10;;;;;;5505753;26;19998;-60
2024/04/13 11:13:02;;;;;;;5.65;2.10;;;21.50;91.10;;;;;;5501569;26;19993;-60
2024/04/13 11:15:29;;;;;;;5.75;2.00;;;21.40;91.00;;;;;;5503079;26;19999;-60
2024/04/13 11:17:55;;;;;;;5.68;2.10;;;21.50;91.10;;;;;;5501241;26;20025;-60
2024/04/13 11:20:24;;;;;;;6.00;2.20;;;21.50;91.00;;;;;;5501382;26;20013;-60
2024/04/13 11:22:49;;;;;;;5.83;2.00;;;21.50;91.00;;;;;;5501942;26;20001;-60
2024/04/13 11:25:15;;;;;;;5.00;1.88;;;21.50;90.90;;;;;;5499354;26;20018;-60
2024/04/13 11:27:42;;;;;;;5.20;1.95;;;21.50;90.90;;;;;;5506594;26;20006;-60
2024/04/13 11:30:10;;;;;;;6.00;2.35;;;21.50;90.90;;;;;;5519409;26;19997;-60
2024/04/13 11:32:36;;;;;;;6.72;1.92;;;21.60;90.80;;;;;;5491761;26;19998;-60
2024/04/13 11:35:02;;;;;;;5.20;1.88;;;21.60;90.80;;;;;;5511037;26;20013;-62
2024/04/13 11:37:30;;;;;;;7.43;1.92;;;21.60;90.70;;;;;;5506657;26;20006;-61
2024/04/13 11:39:55;;;;;;;6.72;2.00;;;21.60;90.60;;;;;;5511330;26;20012;-61
2024/04/13 11:42:21;;;;;;;5.57;2.00;;;21.60;90.60;;;;;;5502380;26;20010;-61
2024/04/13 11:44:49;;;;;;;5.03;1.60;;;21.60;90.50;;;;;;5510164;25;20002;-61
2024/04/13 11:47:15;;;;;;;7.35;2.10;;;21.70;90.60;;;;;;5510196;26;21048;-61
2024/04/13 11:49:42;;;;;;;4.75;1.80;;;21.70;90.60;;;;;;5509041;26;20001;-61
2024/04/13 11:52:13;;;;;;;8.65;2.08;;;21.70;90.60;;;;;;5500810;26;20006;-64
2024/04/13 11:54:41;;;;;;;6.05;2.05;;;21.70;90.50;;;;;;5508947;26;20009;-62
2024/04/13 11:57:13;;;;;;;5.10;1.80;;;21.70;90.50;;;;;;5502731;26;19994;-61
2024/04/13 11:59:39;;;;;;;5.40;2.00;;;21.70;90.50;;;;;;5498859;26;19994;-61
2024/04/13 12:02:05;;;;;;;6.25;1.95;;;21.80;90.60;;;;;;5502199;26;19994;-61
2024/04/13 12:04:31;;;;;;;5.75;2.00;;;21.80;90.50;;;;;;5502017;26;20006;-61
2024/04/13 12:06:57;;;;;;;5.97;2.10;;;21.80;90.50;;;;;;5507185;26;20061;-61
2024/04/13 12:09:24;;;;;;;4.60;1.80;;;21.80;90.50;;;;;;5497152;26;20808;-62
2024/04/13 12:11:49;;;;;;;5.70;1.95;;;21.80;90.50;;;;;;5502522;26;20456;-61
2024/04/13 12:14:15;;;;;;;5.40;1.85;;;21.80;90.40;;;;;;5504627;26;20006;-61
2024/04/13 12:16:44;;;;;;;5.75;1.98;;;21.80;90.40;;;;;;5508459;26;20002;-61
2024/04/13 12:19:09;;;;;;;5.82;2.08;;;21.90;90.40;;;;;;5499771;26;20024;-61
2024/04/13 12:21:36;;;;;;;5.72;2.10;;;21.90;90.40;;;;;;5504993;26;19997;-61
2024/04/13 12:24:03;;;;;;;5.68;1.92;;;21.90;90.30;;;;;;5501141;26;20026;-62
2024/04/13 12:26:29;;;;;;;4.80;1.75;;;21.90;90.30;;;;;;5506401;26;20072;-61
2024/04/13 12:28:55;;;;;;;6.32;1.98;;;21.90;90.30;;;;;;5503726;26;20001;-61
2024/04/13 12:31:21;;;;;;;4.88;1.80;;;21.90;90.30;;;;;;5509984;26;20016;-62
2024/04/13 12:33:46;;;;;;;5.60;1.90;;;21.90;90.30;;;;;;5508568;26;19997;-61
2024/04/13 12:36:12;;;;;;;6.65;2.22;;;21.90;90.30;;;;;;5500302;26;19998;-61
2024/04/13 12:38:38;;;;;;;6.22;1.90;;;22.00;90.30;;;;;;5508112;26;20010;-61
2024/04/13 12:41:03;;;;;;;4.93;1.70;;;22.00;90.30;;;;;;5500386;26;20390;-61
2024/04/13 12:43:30;;;;;;;4.97;1.90;;;22.00;90.30;;;;;;5505380;26;19994;-61
2024/04/13 12:45:59;;;;;;;6.15;2.08;;;22.00;90.10;;;;;;5502681;26;20452;-61